aviador You're here:

KMSP Decoded Metar

MINNEAPOLIS in MN, USA
Report Time2017-11-24 08:53:00
UTC Time2017-11-24 09:14:06
Flight Rules vfr VFR
Wind210° at 06 kt
W.Decomp.*RWY 22: 5.9 kt HW 1 kt LCW
RWY 17: 4.6 kt HW 3.9 kt RCW
RWY 12: 6.0 kt RCW
W.Rank210° ranks 23
Current wind is below 210° avg. (6.9)
Visibility9999 m
Phenomena:N/A
Clouds:Scattered 120 Hf
Scattered 180 Hf
Expected CloudBase > 2,400 ft AGL from Temp-Dew spread
CeilingNone
Temp09°C (ISA -4)
Dew Point03°C (66% RH)
AAT5.3°C
QNH998 hPa
Density Alt978 ft
Elevation869 ft
Report Wrong Elevation
Raw Report
METAR KMSP 240853Z 21006KT 10SM SCT120 SCT180 09/03 A2948 RMK AO2 SLP988
T00890028 56027=

Extra information for KMSP:More info

Metar Taf Metar & Taf Last 4 Metars F.Rules Stats Wind Profile Meteogram Temp Stats Airport Information Weather charts Add Link Nearby VenuesMetar ALERT Operation Metar Decoded Social comments

AIRNAV info for KMSP